This demonstration page uses our WeatherBlox Daily Observations layout. Learn more.

39.92423, -83.80882

Hourly Observations for May 14, 2015

Temp ( °F °C ) Dew Point ( °F °C ) Humidity (%) Winds ( mph kmh ) Pressure ( in mb ) Visibility ( mi km ) Precip ( " mm )
12:56 am 00:56 Clear 46 7.7 41 5 83 83 ENE 10 17 30.45 1031 7 11.26538 0 0
1:56 am 01:56 Clear 44 6.6 40 4.4 86 86 E 8 13 30.43 1031 7 11.26538 0 0
2:56 am 02:56 Clear 42 5.5 39 3.8 89 89 E 8 13 30.42 1030 7 11.26538 0 0
3:56 am 03:56 Clear with Mist and Fog 41 5 39 3.8 92 92 E 8 13 30.41 1030 6 9.65604 0 0
4:56 am 04:56 Clear with Mist and Fog 42 5.5 39 3.8 89 89 E 8 13 30.4 1030 6 9.65604 0 0
5:56 am 05:56 Clear with Mist and Fog 42 5.5 39 3.8 89 89 ESE 6 9 30.4 1030 6 9.65604 0 0
6:56 am 06:56 Sunny with Mist and Fog 42 5.5 38 3.3 86 86 E 8 13 30.41 1030 4 6.43736 0 0
7:56 am 07:56 Hazy 46 7.7 40 4.4 80 80 E 12 19 30.45 1031 5 8.0467 0 0
8:56 am 08:56 Hazy 50 10 41 5 71 71 E 13 20 30.45 1031 5 8.0467 0 0
9:56 am 09:56 Hazy 53 11.6 41 5 64 64 ESE 16 26 30.43 1030 6 9.65604 0 0
10:56 am 10:56 Hazy 56 13.3 42 5.5 59 59 E 14 22 30.41 1030 5 8.0467 0 0
11:56 am 11:56 Hazy 60 15.5 43 6.1 54 54 ESE 10 17 30.4 1030 5 8.0467 0 0
12:56 pm 12:56 Hazy 62 16.6 43 6.1 50 50 E 12 19 30.37 1029 5 8.0467 0 0
1:56 pm 13:56 Hazy 65 18.3 43 6.1 45 45 E 9 15 30.35 1028 5 8.0467 0 0
2:56 pm 14:56 Hazy 65 18.3 42 5.5 43 43 E 9 15 30.32 1027 5 8.0467 0 0
3:56 pm 15:56 Hazy 66 18.8 42 5.5 42 42 ESE 8 13 30.29 1026 5 8.0467 0 0
4:56 pm 16:56 Hazy 67 19.4 43 6.1 42 42 SE 10 17 30.27 1025 5 8.0467 0 0
5:56 pm 17:56 Hazy 67 19.4 45 7.2 45 45 E 13 20 30.25 1025 5 8.0467 0 0
6:56 pm 18:56 Hazy 67 19.4 46 7.7 47 47 ESE 7 11 30.24 1024 5 8.0467 0 0
7:56 pm 19:56 Hazy 65 18.3 45 7.2 49 49 SE 9 15 30.23 1024 6 9.65604 0 0
8:56 pm 20:56 Clear 62 16.6 47 8.3 58 58 SE 5 7 30.22 1023 7 11.26538 0 0
9:56 pm 21:56 Clear 60 15.5 48 8.8 65 65 E 6 9 30.2 1023 7 11.26538 0 0
10:56 pm 22:56 Clear 60 15.5 49 9.4 67 67 SE 5 7 30.2 1023 7 11.26538 0 0
11:56 pm 23:56 Clear 61 16.1 49 9.4 65 65 SSE 5 7 30.2 1023 7 11.26538 0 0

Powered by AerisWeather